オスロ の空港の天気 - METARとTAF

オスロ空港 ( ENGM / OSL ) - ノルウェー アーケシュフース県オスロ
飛行場実況気象(Metar)
観測時間05/27 13:20 CEST (05/27 11:20 UTC)
風向・風速不定 2m/s
視程10km以上
天気現象
なし
気温25℃
湿度26%
気圧1030hPa
METARENGM 271120Z VRB04KT CAVOK 25/04 Q1030 NOSIG
過去の天気等 Google飛行場航空写真 Wunderground天気予報

過去48時間のMETAR

飛行場予報(TAF)
発表時間: -
27日14時 CEST ~ 27日20時 CEST に一時的に
風向・風速東南東 5m/s
TAF ENGM 2706/2806 04005KT CAVOK
TEMPO 2712/2718 11010KT